Time;durP1;ratioP1;P1;durP2;ratioP2;P2;SDS_P1;SDS_P2;PMS_P1;PMS_P2;Temp;Humidity;BMP_temperature;BMP_pressure;BME280_temperature;BME280_humidity;BME280_pressure;Samples;Min_cycle;Max_cycle;Signal;HPM_P1;HPM_P2
2022/02/26 00:00:06;;;;;;;18.13;3.20;;;;;;;;;;5036548;27;20802;-76
2022/02/26 00:02:34;;;;;;;12.70;3.50;;;;;;;;;;5037170;27;20497;-75
2022/02/26 00:05:02;;;;;;;7.63;2.03;;;;;;;;;;5037302;27;20529;-75
2022/02/26 00:07:31;;;;;;;18.43;4.87;;;;;;;;;;5037483;27;20712;-75
2022/02/26 00:10:02;;;;;;;15.83;2.67;;;;;;;;;;5037828;27;20454;-75
2022/02/26 00:12:30;;;;;;;20.43;3.60;;;;;;;;;;5037545;27;20451;-75
2022/02/26 00:15:01;;;;;;;19.40;3.70;;;;;;;;;;5037690;27;20859;-75
2022/02/26 00:17:28;;;;;;;16.80;4.53;;;;;;;;;;5037826;27;20477;-75
2022/02/26 00:19:56;;;;;;;10.17;2.83;;;;;;;;;;5036490;27;20450;-74
2022/02/26 00:22:24;;;;;;;20.17;3.93;;;;;;;;;;5037036;27;20796;-75
2022/02/26 00:24:53;;;;;;;12.03;2.70;;;;;;;;;;5036271;27;20454;-74
2022/02/26 00:27:21;;;;;;;23.93;5.40;;;;;;;;;;5037168;27;20481;-76
2022/02/26 00:29:49;;;;;;;13.40;2.70;;;;;;;;;;5036738;27;20835;-76
2022/02/26 00:32:16;;;;;;;18.23;3.73;;;;;;;;;;5036630;27;20482;-75
2022/02/26 00:34:44;;;;;;;10.00;2.33;;;;;;;;;;5036340;27;20458;-75
2022/02/26 00:37:12;;;;;;;9.13;2.43;;;;;;;;;;5035967;27;20547;-76
2022/02/26 00:39:43;;;;;;;18.83;6.40;;;;;;;;;;5036267;27;21031;-75
2022/02/26 00:42:12;;;;;;;10.50;1.80;;;;;;;;;;5036315;27;20502;-75
2022/02/26 00:48:13;;;;;;;32.43;4.30;;;;;;;;;;5045197;27;20461;-77
2022/02/26 00:51:03;;;;;;;31.93;4.60;;;;;;;;;;5018591;27;21061;-75
2022/02/26 00:53:37;;;;;;;19.03;3.43;;;;;;;;;;5063895;27;20523;-75
2022/02/26 00:56:07;;;;;;;30.47;4.73;;;;;;;;;;5038114;27;20455;-75
2022/02/26 00:58:40;;;;;;;18.77;4.63;;;;;;;;;;5037356;27;20552;-76
2022/02/26 01:01:07;;;;;;;11.60;4.53;;;;;;;;;;5036890;27;20564;-76
2022/02/26 01:03:35;;;;;;;16.03;3.40;;;;;;;;;;5037744;27;20458;-76
2022/02/26 01:06:03;;;;;;;22.93;4.97;;;;;;;;;;5036494;27;20473;-75
2022/02/26 01:08:31;;;;;;;20.77;4.47;;;;;;;;;;5038593;27;20885;-76
2022/02/26 01:11:06;;;;;;;9.53;2.50;;;;;;;;;;5036597;27;20474;-75
2022/02/26 01:13:36;;;;;;;26.83;3.63;;;;;;;;;;5038051;27;20454;-75
2022/02/26 01:16:08;;;;;;;19.67;3.47;;;;;;;;;;5037701;27;20888;-75
2022/02/26 01:18:36;;;;;;;19.67;3.17;;;;;;;;;;5036891;27;20897;-76
2022/02/26 01:21:07;;;;;;;17.60;3.53;;;;;;;;;;5036926;27;20520;-75
2022/02/26 01:23:35;;;;;;;20.50;3.30;;;;;;;;;;5036353;27;20469;-76
2022/02/26 01:26:02;;;;;;;20.70;3.90;;;;;;;;;;5039286;27;20745;-76
2022/02/26 01:28:30;;;;;;;17.93;4.03;;;;;;;;;;5038332;27;20457;-76
2022/02/26 01:30:58;;;;;;;20.03;5.10;;;;;;;;;;5037351;27;20482;-75
2022/02/26 01:33:28;;;;;;;19.57;4.30;;;;;;;;;;5036996;27;20451;-76
2022/02/26 01:35:56;;;;;;;17.43;3.27;;;;;;;;;;5036520;27;20447;-75
2022/02/26 01:38:26;;;;;;;13.73;3.33;;;;;;;;;;5019942;28;20489;-76
2022/02/26 01:40:54;;;;;;;8.50;3.30;;;;;;;;;;5025407;27;20471;-76
2022/02/26 01:43:21;;;;;;;12.33;3.20;;;;;;;;;;5036771;27;20733;-76
2022/02/26 01:45:56;;;;;;;12.33;2.97;;;;;;;;;;5034927;27;20481;-76
2022/02/26 01:48:23;;;;;;;26.47;4.30;;;;;;;;;;5034107;27;20504;-76
2022/02/26 01:50:53;;;;;;;21.20;4.70;;;;;;;;;;5034481;27;20549;-76
2022/02/26 01:53:26;;;;;;;19.07;4.03;;;;;;;;;;5035771;27;20481;-76
2022/02/26 01:55:54;;;;;;;11.57;3.30;;;;;;;;;;5036015;27;20546;-76
2022/02/26 01:58:24;;;;;;;19.77;5.10;;;;;;;;;;5035222;27;20902;-76
2022/02/26 02:00:52;;;;;;;11.00;5.30;;;;;;;;;;5036731;27;20535;-76
2022/02/26 02:03:19;;;;;;;17.90;2.90;;;;;;;;;;5037917;27;20863;-76
2022/02/26 02:05:49;;;;;;;17.07;4.60;;;;;;;;;;5039377;27;20557;-76
2022/02/26 02:08:19;;;;;;;17.93;3.10;;;;;;;;;;5037530;27;20451;-77
2022/02/26 02:10:47;;;;;;;15.13;3.10;;;;;;;;;;5037330;27;20481;-76
2022/02/26 02:13:24;;;;;;;16.67;3.43;;;;;;;;;;5037648;27;20502;-76
2022/02/26 02:15:54;;;;;;;18.10;4.00;;;;;;;;;;5035904;27;20558;-75
2022/02/26 02:18:22;;;;;;;8.43;3.73;;;;;;;;;;5035968;27;20458;-75
2022/02/26 02:20:50;;;;;;;13.73;3.37;;;;;;;;;;5036268;27;20469;-77
2022/02/26 02:23:19;;;;;;;22.20;4.23;;;;;;;;;;5036026;27;20497;-76
2022/02/26 02:25:47;;;;;;;20.50;5.63;;;;;;;;;;5035579;27;20466;-76
2022/02/26 02:28:15;;;;;;;24.90;5.00;;;;;;;;;;5036481;27;20459;-76
2022/02/26 02:30:43;;;;;;;30.17;3.37;;;;;;;;;;5036814;27;20855;-76
2022/02/26 02:33:13;;;;;;;28.13;3.23;;;;;;;;;;5036429;27;20490;-75
2022/02/26 02:35:41;;;;;;;21.00;4.20;;;;;;;;;;5036330;27;20466;-75
2022/02/26 02:38:10;;;;;;;17.20;3.87;;;;;;;;;;5036302;27;20459;-75
2022/02/26 02:40:40;;;;;;;19.47;3.10;;;;;;;;;;5035954;27;20875;-77
2022/02/26 02:43:11;;;;;;;18.00;2.50;;;;;;;;;;5035950;27;20569;-75
2022/02/26 02:45:45;;;;;;;13.73;3.57;;;;;;;;;;5035211;27;20458;-74
2022/02/26 02:48:13;;;;;;;10.67;3.50;;;;;;;;;;5035351;27;20458;-77
2022/02/26 02:50:40;;;;;;;17.93;3.30;;;;;;;;;;5035108;27;20466;-76
2022/02/26 02:53:08;;;;;;;18.93;3.23;;;;;;;;;;5035872;27;20950;-76
2022/02/26 02:55:36;;;;;;;15.77;3.20;;;;;;;;;;5035630;27;20738;-76
2022/02/26 02:58:07;;;;;;;22.97;3.03;;;;;;;;;;5035641;27;20486;-76
2022/02/26 03:00:35;;;;;;;29.37;3.57;;;;;;;;;;5127216;27;20450;-76
2022/02/26 03:03:03;;;;;;;17.77;4.03;;;;;;;;;;5139879;27;20477;-75
2022/02/26 03:05:31;;;;;;;9.70;3.03;;;;;;;;;;5139080;27;20470;-75
2022/02/26 03:08:03;;;;;;;17.17;3.47;;;;;;;;;;5139166;27;20488;-75
2022/02/26 03:10:30;;;;;;;20.87;3.27;;;;;;;;;;5139085;27;20546;-75
2022/02/26 03:12:58;;;;;;;12.83;6.03;;;;;;;;;;5138881;27;20468;-76
2022/02/26 03:15:27;;;;;;;27.20;4.97;;;;;;;;;;5138888;27;20552;-75
2022/02/26 03:17:55;;;;;;;22.13;3.23;;;;;;;;;;5139094;27;20453;-76
2022/02/26 03:20:25;;;;;;;21.53;3.70;;;;;;;;;;5139478;27;20468;-76
2022/02/26 03:22:53;;;;;;;16.50;5.40;;;;;;;;;;5139451;27;20515;-76
2022/02/26 03:25:23;;;;;;;24.37;3.83;;;;;;;;;;5138607;27;20458;-75
2022/02/26 03:27:52;;;;;;;21.00;4.30;;;;;;;;;;5139049;27;20458;-76
2022/02/26 03:30:20;;;;;;;19.03;3.37;;;;;;;;;;5137981;27;20454;-76
2022/02/26 03:32:49;;;;;;;22.87;3.70;;;;;;;;;;5138859;27;20454;-76
2022/02/26 03:35:17;;;;;;;22.13;4.20;;;;;;;;;;5138775;27;20551;-76
2022/02/26 03:37:45;;;;;;;11.40;3.80;;;;;;;;;;5138381;27;20460;-75
2022/02/26 03:40:13;;;;;;;17.87;3.23;;;;;;;;;;5138868;27;20882;-76
2022/02/26 03:42:41;;;;;;;20.87;3.83;;;;;;;;;;5138921;27;20915;-76
2022/02/26 03:45:10;;;;;;;14.70;3.70;;;;;;;;;;5138769;27;20454;-76
2022/02/26 03:47:41;;;;;;;16.93;4.30;;;;;;;;;;5138267;27;20449;-76
2022/02/26 03:50:11;;;;;;;11.97;3.37;;;;;;;;;;5129342;27;20730;-75
2022/02/26 03:52:39;;;;;;;19.80;3.73;;;;;;;;;;5139430;27;20715;-76
2022/02/26 03:55:08;;;;;;;12.53;4.03;;;;;;;;;;5138502;27;20464;-76
2022/02/26 03:57:41;;;;;;;20.70;3.20;;;;;;;;;;5138693;27;20453;-75
2022/02/26 04:00:13;;;;;;;19.57;4.83;;;;;;;;;;5138476;27;20808;-76
2022/02/26 04:02:41;;;;;;;15.73;4.30;;;;;;;;;;5138284;27;20509;-76
2022/02/26 04:05:13;;;;;;;16.67;3.57;;;;;;;;;;5137851;27;20464;-75
2022/02/26 04:07:42;;;;;;;26.37;3.70;;;;;;;;;;5138184;27;20460;-76
2022/02/26 04:10:12;;;;;;;26.17;5.07;;;;;;;;;;5138167;27;20458;-76
2022/02/26 04:12:40;;;;;;;33.20;6.67;;;;;;;;;;5129415;27;20555;-76
2022/02/26 04:15:08;;;;;;;17.50;4.40;;;;;;;;;;5137777;27;20464;-75
2022/02/26 04:17:36;;;;;;;26.40;5.70;;;;;;;;;;5138752;27;20454;-75
2022/02/26 04:20:12;;;;;;;12.03;2.80;;;;;;;;;;5138481;27;20454;-76
2022/02/26 04:22:42;;;;;;;15.60;3.93;;;;;;;;;;5136854;27;20572;-76
2022/02/26 04:25:10;;;;;;;19.87;4.27;;;;;;;;;;5138336;27;21035;-75
2022/02/26 04:27:38;;;;;;;13.63;2.83;;;;;;;;;;5138293;27;20928;-75
2022/02/26 04:30:08;;;;;;;12.30;3.53;;;;;;;;;;5138165;27;20461;-75
2022/02/26 04:32:42;;;;;;;32.40;4.33;;;;;;;;;;5137579;27;20482;-76
2022/02/26 04:35:15;;;;;;;20.60;4.07;;;;;;;;;;5138327;27;20454;-75
2022/02/26 04:37:50;;;;;;;25.50;3.90;;;;;;;;;;5138037;27;20874;-76
2022/02/26 04:40:21;;;;;;;27.73;4.20;;;;;;;;;;5137501;27;20456;-76
2022/02/26 04:42:49;;;;;;;27.87;4.40;;;;;;;;;;5138001;27;20504;-76
2022/02/26 04:45:17;;;;;;;13.97;2.80;;;;;;;;;;5137551;27;20928;-76
2022/02/26 04:47:45;;;;;;;16.50;2.87;;;;;;;;;;5137439;27;20457;-76
2022/02/26 04:50:14;;;;;;;7.83;3.23;;;;;;;;;;5137841;27;20450;-76
2022/02/26 04:52:44;;;;;;;24.00;4.87;;;;;;;;;;5137844;27;20565;-76
2022/02/26 04:55:13;;;;;;;22.03;4.17;;;;;;;;;;5137219;27;20442;-75
2022/02/26 04:57:41;;;;;;;17.50;2.67;;;;;;;;;;5136895;27;20734;-76
2022/02/26 05:00:10;;;;;;;20.70;3.37;;;;;;;;;;5137237;27;20454;-76
2022/02/26 05:02:38;;;;;;;21.53;4.40;;;;;;;;;;5137395;27;20758;-76
2022/02/26 05:05:06;;;;;;;18.67;4.83;;;;;;;;;;5137347;27;20453;-76
2022/02/26 05:07:34;;;;;;;23.13;4.33;;;;;;;;;;5136396;27;20450;-76
2022/02/26 05:10:04;;;;;;;30.00;6.87;;;;;;;;;;5137670;27;20479;-75
2022/02/26 05:12:32;;;;;;;20.97;3.70;;;;;;;;;;5136564;27;20544;-75
2022/02/26 05:15:02;;;;;;;21.77;3.53;;;;;;;;;;5137224;27;20722;-75
2022/02/26 05:17:32;;;;;;;19.60;3.37;;;;;;;;;;5137495;27;20458;-76
2022/02/26 05:20:00;;;;;;;23.53;3.60;;;;;;;;;;5138035;27;20540;-76
2022/02/26 05:22:28;;;;;;;17.53;4.20;;;;;;;;;;5137141;27;20481;-76
2022/02/26 05:24:55;;;;;;;27.07;4.60;;;;;;;;;;5137439;27;20457;-76
2022/02/26 05:27:25;;;;;;;19.77;3.73;;;;;;;;;;5137418;27;20465;-75
2022/02/26 05:29:52;;;;;;;17.80;4.37;;;;;;;;;;5137277;27;20461;-76
2022/02/26 05:32:20;;;;;;;15.37;3.60;;;;;;;;;;5136997;27;20458;-75
2022/02/26 05:34:51;;;;;;;28.20;6.20;;;;;;;;;;5140744;27;20461;-76
2022/02/26 05:37:18;;;;;;;23.53;4.40;;;;;;;;;;5141406;27;20452;-75
2022/02/26 05:39:47;;;;;;;20.90;3.53;;;;;;;;;;5141465;27;20550;-75
2022/02/26 05:42:15;;;;;;;11.43;3.30;;;;;;;;;;5141608;27;20488;-75
2022/02/26 05:44:44;;;;;;;11.43;3.13;;;;;;;;;;5141118;27;20469;-76
2022/02/26 05:47:12;;;;;;;27.70;3.33;;;;;;;;;;5140573;27;20858;-76
2022/02/26 05:49:39;;;;;;;19.33;4.17;;;;;;;;;;5140238;27;20473;-76
2022/02/26 05:52:08;;;;;;;12.73;3.30;;;;;;;;;;5140600;27;20476;-76
2022/02/26 05:54:36;;;;;;;27.80;3.77;;;;;;;;;;5140585;27;20461;-76
2022/02/26 05:57:05;;;;;;;22.23;3.73;;;;;;;;;;5140030;27;20921;-76
2022/02/26 05:59:32;;;;;;;12.70;3.33;;;;;;;;;;5140189;27;20464;-76
2022/02/26 06:02:01;;;;;;;13.10;2.93;;;;;;;;;;5140197;27;20726;-76
2022/02/26 06:04:33;;;;;;;12.40;2.73;;;;;;;;;;5139918;27;20496;-76
2022/02/26 06:07:04;;;;;;;30.87;4.57;;;;;;;;;;5139984;27;20845;-76
2022/02/26 06:09:31;;;;;;;23.53;5.20;;;;;;;;;;5139861;27;20461;-76
2022/02/26 06:11:59;;;;;;;22.43;4.53;;;;;;;;;;5140384;27;20467;-76
2022/02/26 06:14:27;;;;;;;25.43;3.43;;;;;;;;;;5140036;27;20523;-77
2022/02/26 06:16:55;;;;;;;15.87;4.07;;;;;;;;;;5140559;27;20445;-76
2022/02/26 06:19:24;;;;;;;13.67;3.10;;;;;;;;;;5140150;27;20550;-76
2022/02/26 06:21:52;;;;;;;22.53;3.93;;;;;;;;;;5140165;27;20531;-76
2022/02/26 06:24:20;;;;;;;14.87;3.20;;;;;;;;;;5139821;27;20591;-76
2022/02/26 06:26:48;;;;;;;13.10;3.80;;;;;;;;;;5139311;27;20481;-76
2022/02/26 06:29:16;;;;;;;23.73;4.57;;;;;;;;;;5140007;27;20457;-76
2022/02/26 06:31:45;;;;;;;13.47;3.80;;;;;;;;;;5140231;27;20846;-76
2022/02/26 06:34:13;;;;;;;13.93;3.87;;;;;;;;;;5139598;27;20468;-75
2022/02/26 06:36:42;;;;;;;17.43;3.40;;;;;;;;;;5139028;27;20980;-76
2022/02/26 06:39:10;;;;;;;18.77;3.27;;;;;;;;;;5139017;27;20736;-75
2022/02/26 06:41:39;;;;;;;17.20;3.53;;;;;;;;;;5139056;27;20753;-75
2022/02/26 06:44:07;;;;;;;37.07;5.53;;;;;;;;;;5103665;27;20937;-76
2022/02/26 06:46:41;;;;;;;14.50;2.73;;;;;;;;;;5036114;27;20533;-76
2022/02/26 06:49:13;;;;;;;22.50;4.23;;;;;;;;;;5038807;27;20553;-75
2022/02/26 06:51:43;;;;;;;16.67;3.30;;;;;;;;;;5038381;27;20458;-75
2022/02/26 06:54:11;;;;;;;16.90;3.40;;;;;;;;;;5038549;27;20478;-75
2022/02/26 06:56:38;;;;;;;12.50;4.20;;;;;;;;;;5038807;27;20870;-74
2022/02/26 06:59:06;;;;;;;35.77;4.40;;;;;;;;;;5041461;27;20522;-76
2022/02/26 07:01:34;;;;;;;9.57;3.13;;;;;;;;;;5036889;27;20449;-75
2022/02/26 07:04:02;;;;;;;19.07;2.83;;;;;;;;;;5019009;27;20867;-76
2022/02/26 07:06:30;;;;;;;18.13;3.40;;;;;;;;;;5017920;28;20732;-75
2022/02/26 07:09:00;;;;;;;31.80;4.60;;;;;;;;;;5016664;27;20459;-75
2022/02/26 07:11:28;;;;;;;20.27;4.20;;;;;;;;;;5133670;27;20442;-75
2022/02/26 07:14:00;;;;;;;22.13;3.07;;;;;;;;;;5123153;27;20951;-76
2022/02/26 07:16:31;;;;;;;25.03;3.57;;;;;;;;;;5106549;27;20453;-75
2022/02/26 07:18:59;;;;;;;20.00;4.33;;;;;;;;;;5135295;27;20761;-75
2022/02/26 07:21:27;;;;;;;11.20;3.10;;;;;;;;;;5134384;27;20450;-74
2022/02/26 07:23:56;;;;;;;27.83;4.07;;;;;;;;;;5131862;27;20482;-74
2022/02/26 07:26:25;;;;;;;15.03;3.20;;;;;;;;;;5039180;27;20486;-74
2022/02/26 07:28:53;;;;;;;27.13;4.10;;;;;;;;;;5037196;27;20572;-75
2022/02/26 07:31:21;;;;;;;21.70;3.77;;;;;;;;;;5037160;27;20980;-75
2022/02/26 07:33:52;;;;;;;36.50;6.27;;;;;;;;;;5037083;27;20863;-74
2022/02/26 07:36:24;;;;;;;26.20;4.57;;;;;;;;;;5036904;27;20485;-75
2022/02/26 07:38:58;;;;;;;17.20;2.87;;;;;;;;;;5018083;27;20463;-76
2022/02/26 07:41:28;;;;;;;15.37;2.70;;;;;;;;;;5016284;27;20455;-75
2022/02/26 07:43:57;;;;;;;16.43;3.53;;;;;;;;;;5016427;28;20605;-75
2022/02/26 07:46:28;;;;;;;20.50;4.03;;;;;;;;;;5099304;28;20451;-75
2022/02/26 07:48:56;;;;;;;15.23;3.40;;;;;;;;;;5016355;27;21034;-75
2022/02/26 07:51:24;;;;;;;14.73;3.80;;;;;;;;;;5016587;27;20497;-75
2022/02/26 07:53:55;;;;;;;21.57;4.23;;;;;;;;;;5016470;27;20545;-75
2022/02/26 07:56:22;;;;;;;21.00;4.87;;;;;;;;;;5015542;27;20596;-75
2022/02/26 07:58:52;;;;;;;14.57;3.87;;;;;;;;;;5118281;27;20885;-75
2022/02/26 08:01:20;;;;;;;13.47;3.67;;;;;;;;;;5137083;27;20500;-75
2022/02/26 08:03:49;;;;;;;10.87;2.70;;;;;;;;;;5136832;27;20478;-76
2022/02/26 08:06:17;;;;;;;15.40;3.20;;;;;;;;;;5134706;27;20530;-77
2022/02/26 08:08:46;;;;;;;19.77;4.70;;;;;;;;;;5134434;27;20465;-74
2022/02/26 08:11:14;;;;;;;23.00;5.20;;;;;;;;;;5127196;27;20882;-76
2022/02/26 08:13:41;;;;;;;13.47;3.70;;;;;;;;;;5036969;27;20547;-75
2022/02/26 08:16:12;;;;;;;15.70;4.47;;;;;;;;;;5087916;27;20545;-76
2022/02/26 08:18:40;;;;;;;15.43;3.20;;;;;;;;;;5099959;27;20462;-76
2022/02/26 08:21:21;;;;;;;19.33;4.80;;;;;;;;;;5035682;27;20470;-75
2022/02/26 08:23:51;;;;;;;13.30;3.63;;;;;;;;;;5034216;27;20481;-76
2022/02/26 08:26:19;;;;;;;14.90;3.70;;;;;;;;;;5041264;27;20470;-76
2022/02/26 08:28:48;;;;;;;15.83;3.60;;;;;;;;;;5035987;27;20551;-76
2022/02/26 08:34:19;;;;;;;26.30;3.60;;;;;;;;;;5015441;27;20475;-75
2022/02/26 08:36:47;;;;;;;12.97;3.90;;;;;;;;;;5022729;27;20881;-78
2022/02/26 08:39:19;;;;;;;16.93;2.63;;;;;;;;;;5033516;27;20470;-76
2022/02/26 08:41:55;;;;;;;14.87;2.50;;;;;;;;;;5035602;27;20480;-76
2022/02/26 08:44:34;;;;;;;17.77;3.70;;;;;;;;;;5076010;27;20488;-77
2022/02/26 08:47:07;;;;;;;10.03;2.60;;;;;;;;;;5136257;27;20461;-75
2022/02/26 08:49:46;;;;;;;23.83;3.77;;;;;;;;;;5136206;27;20548;-76
2022/02/26 08:52:17;;;;;;;10.13;3.13;;;;;;;;;;5057323;27;20899;-75
2022/02/26 08:54:47;;;;;;;11.40;3.33;;;;;;;;;;5036834;27;20472;-74
2022/02/26 08:57:24;;;;;;;18.07;5.90;;;;;;;;;;5087874;27;20546;-74
2022/02/26 08:59:52;;;;;;;14.60;4.90;;;;;;;;;;5016533;28;20462;-75
2022/02/26 09:02:25;;;;;;;12.40;2.83;;;;;;;;;;5015592;28;20467;-75
2022/02/26 09:04:56;;;;;;;14.03;3.27;;;;;;;;;;5017086;27;20479;-74
2022/02/26 09:07:24;;;;;;;13.77;4.17;;;;;;;;;;5035991;27;20462;-74
2022/02/26 09:10:15;;;;;;;17.20;3.80;;;;;;;;;;5036224;27;20462;-76
2022/02/26 09:12:56;;;;;;;13.73;2.77;;;;;;;;;;5034237;27;20827;-75
2022/02/26 09:15:28;;;;;;;19.17;3.20;;;;;;;;;;5055371;27;20571;-74
2022/02/26 09:18:05;;;;;;;11.47;3.00;;;;;;;;;;5109273;27;20465;-75
2022/02/26 09:20:57;;;;;;;15.10;4.67;;;;;;;;;;5141814;27;20449;-76
2022/02/26 09:23:44;;;;;;;15.93;3.20;;;;;;;;;;4992074;28;20948;-74
2022/02/26 09:26:31;;;;;;;18.23;3.37;;;;;;;;;;4972850;28;20597;-75
2022/02/26 09:32:00;;;;;;;11.10;2.50;;;;;;;;;;4972740;28;20458;-74
2022/02/26 09:37:16;;;;;;;11.83;2.07;;;;;;;;;;5035934;27;20458;-75
2022/02/26 09:40:15;;;;;;;14.33;2.27;;;;;;;;;;5042173;27;20542;-73
2022/02/26 09:43:02;;;;;;;13.30;2.93;;;;;;;;;;5044348;27;21034;-76
2022/02/26 09:45:54;;;;;;;18.90;3.10;;;;;;;;;;5036375;27;20493;-76
2022/02/26 09:48:27;;;;;;;9.73;2.20;;;;;;;;;;5034763;27;20929;-77
2022/02/26 09:53:55;;;;;;;8.30;2.10;;;;;;;;;;5092664;28;20498;-76
2022/02/26 10:02:36;;;;;;;12.43;2.47;;;;;;;;;;5015935;28;20458;-74
2022/02/26 10:05:19;;;;;;;9.20;2.90;;;;;;;;;;5138752;27;20497;-76
2022/02/26 10:07:53;;;;;;;10.77;2.53;;;;;;;;;;5133501;27;20553;-77
2022/02/26 10:10:24;;;;;;;10.03;3.00;;;;;;;;;;5087641;27;20485;-76
2022/02/26 10:15:50;;;;;;;10.97;2.37;;;;;;;;;;5042837;27;20461;-75
2022/02/26 10:18:30;;;;;;;8.37;2.87;;;;;;;;;;5043243;27;20457;-75
2022/02/26 10:21:00;;;;;;;7.83;2.47;;;;;;;;;;5051863;27;20453;-75
2022/02/26 10:23:31;;;;;;;15.90;2.60;;;;;;;;;;5054487;27;20450;-75
2022/02/26 10:34:48;;;;;;;12.33;2.60;;;;;;;;;;5017536;28;20443;-75
2022/02/26 10:37:17;;;;;;;7.37;2.07;;;;;;;;;;5048219;27;20438;-74
2022/02/26 10:39:50;;;;;;;13.93;3.73;;;;;;;;;;5051815;27;20891;-75
2022/02/26 10:42:27;;;;;;;9.70;2.63;;;;;;;;;;5053010;27;20760;-75
2022/02/26 10:45:33;;;;;;;14.83;2.60;;;;;;;;;;5066998;27;20479;-75
2022/02/26 10:48:10;;;;;;;10.50;2.40;;;;;;;;;;5066112;27;20458;-76
2022/02/26 10:50:51;;;;;;;10.63;2.90;;;;;;;;;;5038850;27;20489;-74
2022/02/26 10:53:30;;;;;;;7.67;1.77;;;;;;;;;;5050141;27;20458;-74
2022/02/26 10:56:13;;;;;;;4.07;1.70;;;;;;;;;;5059016;27;20459;-74
2022/02/26 11:04:52;;;;;;;4.60;1.93;;;;;;;;;;5103615;27;20481;-75
2022/02/26 11:07:52;;;;;;;2.80;1.43;;;;;;;;;;5055894;27;20456;-74
2022/02/26 11:11:03;;;;;;;6.53;1.47;;;;;;;;;;5041653;28;20469;-76
2022/02/26 11:13:43;;;;;;;8.23;2.33;;;;;;;;;;5095295;28;20435;-74
2022/02/26 11:19:06;;;;;;;4.97;1.53;;;;;;;;;;5052654;27;20636;-77
2022/02/26 11:25:09;;;;;;;5.23;2.30;;;;;;;;;;5032156;28;20783;-77
2022/02/26 11:28:08;;;;;;;2.53;1.30;;;;;;;;;;5032081;28;20878;-74
2022/02/26 11:46:49;;;;;;;3.60;1.60;;;;;;;;;;5042824;27;20476;-78
2022/02/26 11:55:47;;;;;;;4.83;2.20;;;;;;;;;;5039463;28;20445;-76
2022/02/26 12:01:13;;;;;;;5.57;1.30;;;;;;;;;;5028724;27;20446;-75
2022/02/26 12:04:02;;;;;;;5.43;1.20;;;;;;;;;;5033174;27;20859;-74
2022/02/26 12:13:19;;;;;;;3.27;1.33;;;;;;;;;;5104253;27;20451;-76
2022/02/26 12:18:58;;;;;;;5.53;1.20;;;;;;;;;;5025012;27;20470;-74
2022/02/26 12:24:43;;;;;;;8.93;1.50;;;;;;;;;;5031542;27;20450;-74
2022/02/26 12:27:15;;;;;;;4.17;1.20;;;;;;;;;;4969391;28;20473;-74
2022/02/26 12:30:22;;;;;;;;;;;;;;;;;;;;;
2022/02/26 12:33:04;;;;;;;15.37;7.47;;;;;;;;;;5066640;28;20455;-75
2022/02/26 12:38:56;;;;;;;5.50;2.17;;;;;;;;;;5055288;27;20453;-74
2022/02/26 12:44:48;;;;;;;2.90;0.93;;;;;;;;;;5012481;28;20483;-75
2022/02/26 12:47:25;;;;;;;4.40;1.17;;;;;;;;;;5022940;28;20463;-74
2022/02/26 12:49:55;;;;;;;7.17;1.23;;;;;;;;;;5054318;27;20452;-76
2022/02/26 12:55:43;;;;;;;4.43;1.73;;;;;;;;;;5053763;27;20450;-75
2022/02/26 12:58:26;;;;;;;3.00;1.00;;;;;;;;;;5085426;27;20526;-75
2022/02/26 13:01:12;;;;;;;1.97;0.80;;;;;;;;;;5066064;27;20512;-74
2022/02/26 13:04:03;;;;;;;4.17;1.07;;;;;;;;;;5052767;27;20453;-74
2022/02/26 13:06:51;;;;;;;;;;;;;;;;;;;;;
2022/02/26 13:09:23;;;;;;;9.20;1.67;;;;;;;;;;5018671;28;20711;-74
2022/02/26 13:15:14;;;;;;;4.27;1.07;;;;;;;;;;5033428;28;20533;-76
2022/02/26 13:17:56;;;;;;;5.37;2.17;;;;;;;;;;5032999;28;20458;-74
2022/02/26 13:20:39;;;;;;;2.93;1.10;;;;;;;;;;5043733;27;20478;-74
2022/02/26 13:26:46;;;;;;;4.70;1.07;;;;;;;;;;4978848;28;20488;-76
2022/02/26 13:35:12;;;;;;;4.63;1.40;;;;;;;;;;5039390;28;20508;-75
2022/02/26 13:37:43;;;;;;;4.60;1.20;;;;;;;;;;5046033;27;20442;-75
2022/02/26 13:40:13;;;;;;;4.90;0.97;;;;;;;;;;5051430;27;20462;-73
2022/02/26 13:42:59;;;;;;;2.30;0.90;;;;;;;;;;5050931;27;20949;-74
2022/02/26 13:45:32;;;;;;;2.43;0.83;;;;;;;;;;5065536;27;20548;-75
2022/02/26 13:48:02;;;;;;;2.07;0.83;;;;;;;;;;5068045;27;20536;-76
2022/02/26 13:50:30;;;;;;;3.70;1.27;;;;;;;;;;5056152;27;20460;-75
2022/02/26 13:53:11;;;;;;;3.13;1.00;;;;;;;;;;5053565;27;20850;-75
2022/02/26 13:55:39;;;;;;;2.57;1.47;;;;;;;;;;5057258;27;20472;-74
2022/02/26 13:58:29;;;;;;;2.40;1.10;;;;;;;;;;5090746;27;20507;-75
2022/02/26 14:01:15;;;;;;;2.90;1.33;;;;;;;;;;5037083;27;20447;-74
2022/02/26 14:03:53;;;;;;;3.80;1.40;;;;;;;;;;5070066;27;20715;-76
2022/02/26 14:06:46;;;;;;;2.53;1.00;;;;;;;;;;5056638;27;20491;-76
2022/02/26 14:09:28;;;;;;;6.57;1.00;;;;;;;;;;5055019;27;20457;-74
2022/02/26 14:12:08;;;;;;;2.13;1.03;;;;;;;;;;5054620;27;20450;-75
2022/02/26 14:14:37;;;;;;;3.97;1.10;;;;;;;;;;5054341;27;20457;-77
2022/02/26 14:17:12;;;;;;;6.20;1.10;;;;;;;;;;5054167;27;20453;-75
2022/02/26 14:19:50;;;;;;;2.33;0.80;;;;;;;;;;5057909;27;20461;-76
2022/02/26 14:22:21;;;;;;;3.63;1.30;;;;;;;;;;5054982;27;20461;-74
2022/02/26 14:30:40;;;;;;;5.30;2.53;;;;;;;;;;5032286;28;20423;-75
2022/02/26 14:33:33;;;;;;;3.60;1.47;;;;;;;;;;5043596;27;20517;-75
2022/02/26 14:39:43;;;;;;;7.50;3.83;;;;;;;;;;5055775;27;20449;-74
2022/02/26 14:42:23;;;;;;;3.23;1.20;;;;;;;;;;5054240;27;20465;-75
2022/02/26 14:44:55;;;;;;;3.50;1.40;;;;;;;;;;5054909;27;20533;-75
2022/02/26 14:47:25;;;;;;;3.10;1.67;;;;;;;;;;5045348;27;20552;-73
2022/02/26 14:55:35;;;;;;;7.60;1.37;;;;;;;;;;5047143;27;20500;-75
2022/02/26 14:58:17;;;;;;;4.20;1.03;;;;;;;;;;5124238;27;20505;-75
2022/02/26 15:00:54;;;;;;;2.30;1.20;;;;;;;;;;5038145;27;20594;-73
2022/02/26 15:03:24;;;;;;;4.70;0.90;;;;;;;;;;5065162;27;21000;-75
2022/02/26 15:06:20;;;;;;;3.73;1.20;;;;;;;;;;5078463;27;20486;-75
2022/02/26 15:09:03;;;;;;;5.80;1.40;;;;;;;;;;5021297;27;20558;-75
2022/02/26 15:11:41;;;;;;;3.53;1.83;;;;;;;;;;5017700;27;20436;-75
2022/02/26 15:14:09;;;;;;;3.87;0.93;;;;;;;;;;5026791;27;20458;-74
2022/02/26 15:16:49;;;;;;;2.30;0.70;;;;;;;;;;5025143;27;20483;-75
2022/02/26 15:19:17;;;;;;;3.43;1.00;;;;;;;;;;5017479;27;20547;-74
2022/02/26 15:21:46;;;;;;;1.80;0.90;;;;;;;;;;5015641;27;20898;-74
2022/02/26 15:24:38;;;;;;;3.50;1.23;;;;;;;;;;5023086;27;20611;-74
2022/02/26 15:27:07;;;;;;;4.27;1.90;;;;;;;;;;5052927;27;20593;-75
2022/02/26 15:29:36;;;;;;;3.20;1.20;;;;;;;;;;5052559;27;20441;-75
2022/02/26 15:35:06;;;;;;;2.00;0.90;;;;;;;;;;5008965;27;20738;-74
2022/02/26 15:37:59;;;;;;;3.40;1.33;;;;;;;;;;5053921;27;20461;-75
2022/02/26 15:40:37;;;;;;;2.60;0.80;;;;;;;;;;5024441;27;20486;-73
2022/02/26 15:43:11;;;;;;;2.30;1.20;;;;;;;;;;5042153;27;20454;-73
2022/02/26 15:51:32;;;;;;;3.57;1.10;;;;;;;;;;5033051;27;20536;-75
2022/02/26 15:54:12;;;;;;;6.33;1.67;;;;;;;;;;5035714;27;20465;-74
2022/02/26 16:00:06;;;;;;;3.27;1.23;;;;;;;;;;5093688;27;20571;-76
2022/02/26 16:03:02;;;;;;;2.93;0.90;;;;;;;;;;5044095;27;20462;-74
2022/02/26 16:05:39;;;;;;;2.80;1.03;;;;;;;;;;5127964;27;20477;-75
2022/02/26 16:08:22;;;;;;;6.87;2.70;;;;;;;;;;5134024;27;20454;-75
2022/02/26 16:11:01;;;;;;;3.50;1.67;;;;;;;;;;5134865;27;20478;-74
2022/02/26 16:13:45;;;;;;;;;;;;;;;;;;;;;
2022/02/26 16:16:42;;;;;;;4.40;2.03;;;;;;;;;;5034770;28;20519;-75
2022/02/26 16:19:45;;;;;;;;;;;;;;;;;;;;;
2022/02/26 16:22:39;;;;;;;5.23;1.47;;;;;;;;;;5017376;28;20729;-75
2022/02/26 16:25:15;;;;;;;6.27;2.00;;;;;;;;;;5016411;27;20455;-74
2022/02/26 16:27:44;;;;;;;3.43;1.80;;;;;;;;;;5013339;28;20462;-75
2022/02/26 16:30:30;;;;;;;12.40;1.80;;;;;;;;;;5016335;27;20536;-75
2022/02/26 16:33:03;;;;;;;12.23;3.60;;;;;;;;;;5000105;28;20486;-74
2022/02/26 16:35:43;;;;;;;5.10;2.40;;;;;;;;;;5017083;28;20459;-75
2022/02/26 16:38:24;;;;;;;21.83;8.53;;;;;;;;;;5053738;27;20548;-74
2022/02/26 16:44:07;;;;;;;6.57;1.50;;;;;;;;;;5090358;28;20486;-75
2022/02/26 16:46:53;;;;;;;4.23;1.67;;;;;;;;;;5012111;28;20491;-75
2022/02/26 16:49:23;;;;;;;4.80;2.40;;;;;;;;;;5012772;28;20497;-75
2022/02/26 16:52:04;;;;;;;5.10;1.90;;;;;;;;;;5038471;27;20489;-75
2022/02/26 16:54:55;;;;;;;4.93;2.00;;;;;;;;;;5048387;27;20923;-74
2022/02/26 16:57:29;;;;;;;4.90;2.17;;;;;;;;;;5050943;27;20456;-76
2022/02/26 17:00:08;;;;;;;6.93;4.20;;;;;;;;;;5047918;27;20545;-75
2022/02/26 17:02:39;;;;;;;7.57;3.50;;;;;;;;;;5048651;27;20554;-74
2022/02/26 17:05:30;;;;;;;5.90;2.53;;;;;;;;;;5048795;27;20451;-75
2022/02/26 17:08:02;;;;;;;8.47;3.83;;;;;;;;;;5048777;27;20441;-75
2022/02/26 17:10:30;;;;;;;9.00;3.63;;;;;;;;;;5048822;27;20780;-74
2022/02/26 17:13:03;;;;;;;5.97;3.40;;;;;;;;;;5047674;27;20561;-76
2022/02/26 17:15:37;;;;;;;8.00;3.47;;;;;;;;;;5049970;27;20890;-75
2022/02/26 17:21:14;;;;;;;8.40;2.77;;;;;;;;;;5053738;27;20446;-74
2022/02/26 17:23:51;;;;;;;12.43;3.70;;;;;;;;;;5049491;27;20887;-75
2022/02/26 17:26:47;;;;;;;8.37;3.07;;;;;;;;;;5030530;28;20494;-75
2022/02/26 17:29:21;;;;;;;7.63;2.77;;;;;;;;;;5042869;27;20787;-74
2022/02/26 17:31:54;;;;;;;7.43;3.47;;;;;;;;;;5054070;27;20460;-74